createdAt,value
2023-04-23T00:01:49.444Z,13.14
2023-04-23T00:04:19.050Z,13.16
2023-04-23T00:06:47.122Z,13.11
2023-04-23T00:09:15.472Z,13.04
2023-04-23T00:11:42.397Z,13.08
2023-04-23T00:14:09.500Z,13.07
2023-04-23T00:16:36.801Z,13.07
2023-04-23T00:19:03.593Z,13.03
2023-04-23T00:21:31.701Z,13.02
2023-04-23T00:23:58.369Z,13.07
2023-04-23T00:26:24.997Z,13.10
2023-04-23T00:28:51.818Z,13.08
2023-04-23T00:31:18.402Z,13.08
2023-04-23T00:33:49.564Z,13.04
2023-04-23T00:36:16.073Z,13.11
2023-04-23T00:38:44.076Z,13.06
2023-04-23T00:41:11.192Z,13.02
2023-04-23T00:43:37.887Z,12.98
2023-04-23T00:46:06.006Z,12.97
2023-04-23T00:48:34.228Z,13.02
2023-04-23T00:51:03.932Z,13.00
2023-04-23T00:53:30.725Z,12.95
2023-04-23T00:56:00.250Z,12.96
2023-04-23T00:58:26.831Z,12.88
2023-04-23T01:00:53.669Z,12.85
2023-04-23T01:03:21.783Z,12.78
2023-04-23T01:05:48.714Z,12.84
2023-04-23T01:08:17.354Z,12.97
2023-04-23T01:10:49.820Z,12.90
2023-04-23T01:13:17.802Z,12.94
2023-04-23T01:15:45.122Z,12.90
2023-04-23T01:18:12.162Z,12.91
2023-04-23T01:20:39.454Z,12.82
2023-04-23T01:23:07.389Z,12.78
2023-04-23T01:25:34.917Z,12.69
2023-04-23T01:28:02.014Z,12.71
2023-04-23T01:30:30.455Z,12.64
2023-04-23T01:32:57.676Z,12.59
2023-04-23T01:35:25.218Z,12.48
2023-04-23T01:37:53.667Z,12.53
2023-04-23T01:40:21.721Z,12.46
2023-04-23T01:42:48.564Z,12.27
2023-04-23T01:45:15.157Z,12.38
2023-04-23T01:47:41.824Z,12.33
2023-04-23T01:50:09.812Z,12.26
2023-04-23T01:52:36.478Z,12.21
2023-04-23T01:55:03.307Z,12.17
2023-04-23T01:57:31.377Z,12.05
2023-04-23T02:00:03.712Z,12.09
2023-04-23T02:02:30.396Z,12.10
2023-04-23T02:04:58.811Z,12.04
2023-04-23T02:07:25.368Z,12.10
2023-04-23T02:09:52.084Z,12.08
2023-04-23T02:12:18.749Z,12.14
2023-04-23T02:14:46.680Z,12.12
2023-04-23T02:17:13.449Z,12.07
2023-04-23T02:19:40.007Z,12.07
2023-04-23T02:22:06.662Z,12.01
2023-04-23T02:24:33.305Z,11.99
2023-04-23T02:26:59.851Z,11.96
2023-04-23T02:29:26.395Z,11.91
2023-04-23T02:31:54.396Z,11.68
2023-04-23T02:34:21.090Z,11.69
2023-04-23T02:36:47.727Z,11.67
2023-04-23T02:39:14.361Z,11.67
2023-04-23T02:41:41.084Z,11.64
2023-04-23T02:44:07.622Z,11.56
2023-04-23T02:46:36.810Z,11.55
2023-04-23T02:49:04.918Z,11.50
2023-04-23T02:51:31.499Z,11.51
2023-04-23T02:53:58.503Z,11.47
2023-04-23T02:56:25.244Z,11.43
2023-04-23T02:58:51.889Z,11.43
2023-04-23T03:01:18.486Z,11.41
2023-04-23T03:03:45.309Z,11.49
2023-04-23T03:06:13.377Z,11.58
2023-04-23T03:08:39.843Z,11.70
2023-04-23T03:11:06.504Z,11.85
2023-04-23T03:13:33.040Z,11.93
2023-04-23T03:15:59.980Z,11.99
2023-04-23T03:18:26.527Z,12.14
2023-04-23T03:20:53.219Z,12.02
2023-04-23T03:23:21.137Z,12.03
2023-04-23T03:25:47.917Z,12.15
2023-04-23T03:28:14.490Z,12.26
2023-04-23T03:30:41.172Z,12.24
2023-04-23T03:33:07.739Z,12.32
2023-04-23T03:35:34.281Z,12.33
2023-04-23T03:38:01.154Z,12.31
2023-04-23T03:40:29.110Z,12.41
2023-04-23T03:42:55.671Z,12.43
2023-04-23T03:45:22.190Z,12.49
2023-04-23T03:47:48.825Z,12.38
2023-04-23T03:50:15.473Z,12.32
2023-04-23T03:52:41.966Z,12.30
2023-04-23T03:55:09.482Z,12.31
2023-04-23T03:57:37.438Z,12.28
2023-04-23T04:00:05.878Z,12.09
2023-04-23T04:02:32.574Z,12.06
2023-04-23T04:04:59.615Z,11.92
2023-04-23T04:07:26.631Z,11.83
2023-04-23T04:09:53.162Z,11.85
2023-04-23T04:12:19.718Z,11.84
2023-04-23T04:14:47.819Z,11.87
2023-04-23T04:17:14.345Z,11.75
2023-04-23T04:19:40.927Z,11.82
2023-04-23T04:22:07.482Z,11.62
2023-04-23T04:24:34.074Z,11.60
2023-04-23T04:27:01.616Z,11.61
2023-04-23T04:29:28.514Z,11.67
2023-04-23T04:31:56.754Z,11.79
2023-04-23T04:34:23.403Z,11.74
2023-04-23T04:36:49.965Z,11.79
2023-04-23T04:39:16.455Z,11.64
2023-04-23T04:41:43.191Z,11.90
2023-04-23T04:44:09.763Z,11.92
2023-04-23T04:46:36.352Z,12.11
2023-04-23T04:49:04.367Z,12.18
2023-04-23T04:51:30.903Z,12.46
2023-04-23T04:53:57.783Z,12.80
2023-04-23T04:56:24.383Z,13.28
2023-04-23T04:58:50.946Z,13.64
2023-04-23T05:01:17.896Z,14.81
2023-04-23T05:03:44.682Z,15.76
2023-04-23T05:06:12.721Z,16.56
2023-04-23T05:08:39.271Z,17.50
2023-04-23T05:11:05.858Z,17.62
2023-04-23T05:13:32.423Z,17.30
2023-04-23T05:15:59.107Z,16.56
2023-04-23T05:18:25.662Z,15.44
2023-04-23T05:20:52.223Z,15.30
2023-04-23T05:23:20.287Z,14.89
2023-04-23T05:25:46.933Z,14.90
2023-04-23T05:28:13.501Z,14.76
2023-04-23T05:30:40.141Z,14.77
2023-04-23T05:33:06.796Z,14.67
2023-04-23T05:35:33.473Z,14.61
2023-04-23T05:37:59.966Z,14.69
2023-04-23T05:40:28.102Z,14.91
2023-04-23T05:42:55.068Z,14.66
2023-04-23T05:45:22.271Z,14.58
2023-04-23T05:47:48.880Z,14.63
2023-04-23T05:50:15.414Z,14.63
2023-04-23T05:52:41.987Z,14.54
2023-04-23T05:55:09.702Z,14.39
2023-04-23T05:57:38.587Z,14.41
2023-04-23T06:00:06.588Z,14.40
2023-04-23T06:02:33.227Z,14.52
2023-04-23T06:05:01.090Z,14.76
2023-04-23T06:07:27.847Z,14.51
2023-04-23T06:09:54.283Z,14.49
2023-04-23T06:12:20.890Z,14.63
2023-04-23T06:14:48.730Z,14.80
2023-04-23T06:17:15.295Z,14.82
2023-04-23T06:19:41.910Z,14.83
2023-04-23T06:22:08.548Z,14.78
2023-04-23T06:24:35.213Z,15.19
2023-04-23T06:27:01.835Z,15.20
2023-04-23T06:29:28.793Z,15.72
2023-04-23T06:31:57.791Z,15.69
2023-04-23T06:34:24.448Z,16.03
2023-04-23T06:36:51.515Z,16.36
2023-04-23T06:39:18.002Z,16.86
2023-04-23T06:41:44.941Z,17.04
2023-04-23T06:44:11.512Z,17.37
2023-04-23T06:46:38.239Z,17.81
2023-04-23T06:49:06.163Z,18.04
2023-04-23T06:51:32.784Z,18.45
2023-04-23T06:53:59.420Z,18.63
2023-04-23T06:56:25.998Z,18.94
2023-04-23T06:58:53.523Z,19.08
2023-04-23T07:01:20.233Z,18.96
2023-04-23T07:03:47.050Z,18.49
2023-04-23T07:06:15.326Z,18.32
2023-04-23T07:08:43.168Z,18.52
2023-04-23T07:11:09.814Z,18.39
2023-04-23T07:13:36.470Z,18.63
2023-04-23T07:16:03.142Z,18.62
2023-04-23T07:18:29.749Z,18.87
2023-04-23T07:20:56.390Z,19.43
2023-04-23T07:23:24.622Z,19.31
2023-04-23T07:25:52.043Z,19.12
2023-04-23T07:28:21.548Z,19.23
2023-04-23T07:30:48.188Z,19.45
2023-04-23T07:33:15.322Z,19.60
2023-04-23T07:35:41.886Z,19.56
2023-04-23T07:38:08.436Z,19.55
2023-04-23T07:40:36.269Z,19.60
2023-04-23T07:43:02.891Z,19.96
2023-04-23T07:45:29.569Z,20.25
2023-04-23T07:47:56.176Z,20.35
2023-04-23T07:50:22.776Z,20.23
2023-04-23T07:52:49.526Z,20.05
2023-04-23T07:55:16.305Z,20.33
2023-04-23T07:57:44.204Z,20.27
2023-04-23T08:00:11.739Z,20.66
2023-04-23T08:02:38.392Z,20.73
2023-04-23T08:05:06.122Z,20.79
2023-04-23T08:07:33.163Z,20.66
2023-04-23T08:09:59.802Z,20.77
2023-04-23T08:12:27.502Z,20.92
2023-04-23T08:14:55.456Z,20.86
2023-04-23T08:17:22.064Z,20.91
2023-04-23T08:19:48.620Z,20.80
2023-04-23T08:22:15.291Z,21.39
2023-04-23T08:24:42.853Z,21.84
2023-04-23T08:27:09.532Z,21.99
2023-04-23T08:29:36.084Z,21.86
2023-04-23T08:32:04.149Z,21.05
2023-04-23T08:34:30.748Z,21.30
2023-04-23T08:36:57.294Z,21.57
2023-04-23T08:39:23.821Z,21.51
2023-04-23T08:41:55.421Z,21.71
2023-04-23T08:44:23.975Z,21.89
2023-04-23T08:46:52.665Z,21.72
2023-04-23T08:49:22.580Z,21.91
2023-04-23T08:51:52.163Z,21.77
2023-04-23T08:54:24.345Z,21.73
2023-04-23T08:56:54.851Z,21.35
2023-04-23T08:59:21.441Z,21.69
2023-04-23T09:01:48.278Z,21.88
2023-04-23T09:04:15.113Z,21.98
2023-04-23T09:06:43.430Z,22.42
2023-04-23T09:09:10.679Z,22.48
2023-04-23T09:11:37.671Z,22.58
2023-04-23T09:14:04.640Z,22.63
2023-04-23T09:16:31.348Z,22.33
2023-04-23T09:18:59.005Z,21.72
2023-04-23T09:21:25.575Z,21.78
2023-04-23T09:23:53.561Z,21.90
2023-04-23T09:26:20.915Z,21.87
2023-04-23T09:28:50.035Z,22.31
2023-04-23T09:31:20.863Z,22.01
2023-04-23T09:33:54.512Z,21.76
2023-04-23T09:36:24.200Z,21.62
2023-04-23T09:38:51.071Z,21.28
2023-04-23T09:41:22.787Z,21.37
2023-04-23T09:43:49.370Z,21.53
2023-04-23T09:46:16.034Z,21.59
2023-04-23T09:48:43.478Z,21.45
2023-04-23T09:51:16.397Z,21.60
2023-04-23T09:53:43.753Z,21.86
2023-04-23T09:56:10.720Z,22.32
2023-04-23T09:58:38.942Z,23.17
2023-04-23T10:01:07.809Z,22.81
2023-04-23T10:03:34.556Z,22.11
2023-04-23T10:06:02.483Z,22.01
2023-04-23T10:08:31.818Z,22.12
2023-04-23T10:11:13.657Z,22.05
2023-04-23T10:13:46.678Z,21.85
2023-04-23T10:16:22.528Z,21.73
2023-04-23T10:18:52.713Z,22.47
2023-04-23T10:21:19.912Z,22.87
2023-04-23T10:23:49.888Z,23.00
2023-04-23T10:26:16.704Z,23.76
2023-04-23T10:28:50.338Z,23.73
2023-04-23T10:31:19.617Z,23.28
2023-04-23T10:33:58.221Z,23.02
2023-04-23T10:36:26.683Z,23.43
2023-04-23T10:38:58.310Z,23.42
2023-04-23T10:41:33.548Z,23.31
2023-04-23T10:44:01.431Z,23.47
2023-04-23T10:46:28.572Z,23.55
2023-04-23T10:49:05.904Z,23.25
2023-04-23T10:54:08.743Z,23.17
2023-04-23T10:56:35.295Z,23.01
2023-04-23T10:59:06.358Z,23.22
2023-04-23T11:01:33.042Z,23.11
2023-04-23T11:04:00.104Z,22.70
2023-04-23T11:06:51.271Z,22.82
2023-04-23T11:09:32.212Z,22.02
2023-04-23T11:11:59.924Z,22.38
2023-04-23T11:14:41.950Z,22.63
2023-04-23T11:17:11.760Z,22.24
2023-04-23T11:19:39.359Z,22.67
2023-04-23T11:22:07.259Z,23.50
2023-04-23T11:24:35.789Z,24.63
2023-04-23T11:27:05.553Z,24.68
2023-04-23T11:29:32.140Z,24.36
2023-04-23T11:32:03.653Z,24.67
2023-04-23T11:34:32.111Z,24.09
2023-04-23T11:36:59.760Z,22.69
2023-04-23T11:39:26.399Z,22.71
2023-04-23T11:41:53.002Z,22.40
2023-04-23T11:44:21.356Z,22.35
2023-04-23T11:46:48.382Z,23.18
2023-04-23T11:49:17.794Z,23.46
2023-04-23T11:51:45.407Z,23.45
2023-04-23T11:54:12.939Z,24.16
2023-04-23T11:56:40.733Z,24.42
2023-04-23T11:59:08.088Z,24.56
2023-04-23T12:01:45.343Z,24.29
2023-04-23T12:04:13.794Z,24.08
2023-04-23T12:06:43.441Z,24.35
2023-04-23T12:09:10.584Z,23.89
2023-04-23T12:11:37.368Z,23.71
2023-04-23T12:14:04.031Z,23.98
2023-04-23T12:16:34.906Z,23.82
2023-04-23T12:19:01.762Z,23.55
2023-04-23T12:21:28.449Z,23.24
2023-04-23T12:23:57.023Z,23.15
2023-04-23T12:26:25.599Z,22.96
2023-04-23T12:28:53.323Z,23.80
2023-04-23T12:31:20.993Z,23.97
2023-04-23T12:33:47.638Z,23.74
2023-04-23T12:36:15.810Z,24.20
2023-04-23T12:38:42.878Z,24.45
2023-04-23T12:41:10.909Z,24.57
2023-04-23T12:43:37.588Z,23.53
2023-04-23T12:46:04.214Z,24.12
2023-04-23T12:48:30.776Z,23.25
2023-04-23T12:50:57.434Z,23.26
2023-04-23T12:53:23.965Z,23.75
2023-04-23T12:55:50.586Z,23.36
2023-04-23T12:58:18.599Z,23.21
2023-04-23T13:00:45.377Z,22.49
2023-04-23T13:03:12.086Z,22.92
2023-04-23T13:05:38.929Z,22.96
2023-04-23T13:08:05.531Z,22.86
2023-04-23T13:10:32.070Z,23.13
2023-04-23T13:12:58.646Z,23.05
2023-04-23T13:15:27.128Z,22.76
2023-04-23T13:17:54.013Z,23.03
2023-04-23T13:20:20.918Z,23.20
2023-04-23T13:22:47.487Z,22.87
2023-04-23T13:25:14.150Z,22.96
2023-04-23T13:27:40.714Z,22.99
2023-04-23T13:30:08.668Z,22.63
2023-04-23T13:32:36.619Z,22.97
2023-04-23T13:35:03.271Z,22.85
2023-04-23T13:37:48.187Z,22.97
2023-04-23T13:40:16.165Z,23.11
2023-04-23T13:42:42.782Z,23.04
2023-04-23T13:45:10.026Z,22.82
2023-04-23T13:47:37.989Z,22.93
2023-04-23T13:50:05.554Z,23.12
2023-04-23T13:52:32.313Z,23.47
2023-04-23T13:54:58.968Z,23.25
2023-04-23T13:57:26.010Z,22.84
2023-04-23T13:59:52.650Z,23.27
2023-04-23T14:02:19.271Z,22.76
2023-04-23T14:04:47.333Z,23.22
2023-04-23T14:07:13.927Z,23.34
2023-04-23T14:09:40.933Z,23.24
2023-04-23T14:12:07.890Z,22.83
2023-04-23T14:14:34.638Z,22.74
2023-04-23T14:17:01.234Z,22.76
2023-04-23T14:19:27.762Z,22.82
2023-04-23T14:21:55.796Z,22.63
2023-04-23T14:24:27.236Z,23.18
2023-04-23T14:26:56.283Z,22.94
2023-04-23T14:29:30.850Z,23.16
2023-04-23T14:31:58.612Z,22.98
2023-04-23T14:34:25.201Z,22.99
2023-04-23T14:36:52.309Z,22.79
2023-04-23T14:39:21.688Z,22.45
2023-04-23T14:41:48.254Z,22.22
2023-04-23T14:44:14.849Z,22.14
2023-04-23T14:46:41.486Z,22.24
2023-04-23T14:49:08.259Z,22.17
2023-04-23T14:51:34.853Z,22.26
2023-04-23T14:54:01.760Z,22.12
2023-04-23T14:56:29.740Z,22.00
2023-04-23T14:58:56.297Z,21.88
2023-04-23T15:01:23.898Z,21.90
2023-04-23T15:03:52.484Z,22.21
2023-04-23T15:06:19.141Z,22.10
2023-04-23T15:08:45.719Z,21.67
2023-04-23T15:11:12.671Z,21.59
2023-04-23T15:13:44.977Z,20.91
2023-04-23T15:16:44.068Z,20.43
2023-04-23T15:19:12.562Z,20.42
2023-04-23T15:21:39.241Z,20.31
2023-04-23T15:24:05.967Z,20.16
2023-04-23T15:26:32.629Z,19.86
2023-04-23T15:29:00.647Z,19.80
2023-04-23T15:31:27.278Z,19.12
2023-04-23T15:33:54.308Z,18.80
2023-04-23T15:36:20.868Z,18.71
2023-04-23T15:38:47.452Z,18.84
2023-04-23T15:41:14.220Z,18.57
2023-04-23T15:43:40.877Z,18.47
2023-04-23T15:46:08.898Z,18.22
2023-04-23T15:48:35.591Z,18.37
2023-04-23T15:51:02.175Z,18.43
2023-04-23T15:53:28.789Z,18.63
2023-04-23T15:55:55.354Z,18.64
2023-04-23T15:58:21.990Z,18.52
2023-04-23T16:00:48.760Z,18.61
2023-04-23T16:03:16.942Z,18.48
2023-04-23T16:05:43.956Z,18.37
2023-04-23T16:08:10.686Z,18.20
2023-04-23T16:10:38.085Z,18.17
2023-04-23T16:13:04.850Z,18.07
2023-04-23T16:15:32.109Z,17.90
2023-04-23T16:17:58.705Z,17.87
2023-04-23T16:20:27.011Z,17.77
2023-04-23T16:22:53.944Z,17.73
2023-04-23T16:25:21.001Z,17.81
2023-04-23T16:27:48.056Z,17.80
2023-04-23T16:30:14.985Z,17.79
2023-04-23T16:32:41.699Z,17.72
2023-04-23T16:35:09.066Z,17.64
2023-04-23T16:37:37.110Z,17.57
2023-04-23T16:40:04.236Z,17.43
2023-04-23T16:42:30.828Z,17.32
2023-04-23T16:44:57.721Z,17.29
2023-04-23T16:47:24.497Z,17.23
2023-04-23T16:49:51.139Z,17.00
2023-04-23T16:52:17.790Z,16.74
2023-04-23T16:54:45.888Z,16.74
2023-04-23T16:57:12.588Z,16.69
2023-04-23T16:59:39.323Z,16.57
2023-04-23T17:02:06.144Z,16.26
2023-04-23T17:04:32.915Z,16.25
2023-04-23T17:06:59.772Z,16.12
2023-04-23T17:09:26.447Z,15.87
2023-04-23T17:11:54.387Z,15.94
2023-04-23T17:14:21.000Z,15.87
2023-04-23T17:16:47.694Z,15.62
2023-04-23T17:19:14.258Z,15.66
2023-04-23T17:21:40.940Z,15.79
2023-04-23T17:24:07.645Z,15.80
2023-04-23T17:26:34.209Z,15.79
2023-04-23T17:29:02.193Z,15.57
2023-04-23T17:31:29.046Z,15.52
2023-04-23T17:33:57.482Z,15.56
2023-04-23T17:36:24.084Z,15.42
2023-04-23T17:38:50.630Z,15.39
2023-04-23T17:41:17.197Z,15.22
2023-04-23T17:43:43.765Z,15.22
2023-04-23T17:46:12.160Z,15.18
2023-04-23T17:48:38.822Z,15.18
2023-04-23T17:51:05.951Z,15.17
2023-04-23T17:53:32.570Z,15.06
2023-04-23T17:55:59.225Z,15.00
2023-04-23T17:58:25.864Z,14.99
2023-04-23T18:00:52.613Z,14.99
2023-04-23T18:03:20.861Z,14.91
2023-04-23T18:05:48.174Z,14.82
2023-04-23T18:08:14.790Z,14.61
2023-04-23T18:10:41.508Z,14.52
2023-04-23T18:13:08.289Z,14.61
2023-04-23T18:15:35.040Z,14.56
2023-04-23T18:18:01.694Z,14.47
2023-04-23T18:20:29.734Z,14.58
2023-04-23T18:22:56.418Z,14.48
2023-04-23T18:25:22.998Z,14.42
2023-04-23T18:27:49.609Z,14.50
2023-04-23T18:30:16.393Z,14.55
2023-04-23T18:32:48.308Z,14.55
2023-04-23T18:35:15.136Z,14.56
2023-04-23T18:37:48.289Z,14.68
2023-04-23T18:40:14.876Z,14.57
2023-04-23T18:42:41.602Z,14.45
2023-04-23T18:45:08.940Z,14.45
2023-04-23T18:47:38.349Z,14.51
2023-04-23T18:50:09.723Z,14.60
2023-04-23T18:52:36.425Z,14.44
2023-04-23T18:55:06.259Z,14.41
2023-04-23T18:57:32.904Z,14.36
2023-04-23T18:59:59.541Z,14.60
2023-04-23T19:02:35.045Z,14.38
2023-04-23T19:05:02.700Z,14.44
2023-04-23T19:07:29.433Z,14.55
2023-04-23T19:09:56.090Z,14.37
2023-04-23T19:12:24.093Z,14.27
2023-04-23T19:14:50.730Z,13.96
2023-04-23T19:17:18.791Z,14.25
2023-04-23T19:19:45.850Z,14.37
2023-04-23T19:22:12.633Z,14.33
2023-04-23T19:24:39.331Z,14.37
2023-04-23T19:27:06.093Z,14.54
2023-04-23T19:29:34.131Z,14.25
2023-04-23T19:32:01.312Z,14.26
2023-04-23T19:34:28.002Z,14.17
2023-04-23T19:36:54.789Z,14.25
2023-04-23T19:39:21.492Z,14.02
2023-04-23T19:41:48.185Z,13.93
2023-04-23T19:44:14.820Z,14.08
2023-04-23T19:46:42.904Z,14.01
2023-04-23T19:49:09.654Z,13.80
2023-04-23T19:51:36.688Z,14.15
2023-04-23T19:54:03.899Z,13.93
2023-04-23T19:56:30.765Z,14.23
2023-04-23T19:58:57.552Z,13.95
2023-04-23T20:01:24.335Z,14.10
2023-04-23T20:03:52.343Z,13.82
2023-04-23T20:06:18.981Z,13.66
2023-04-23T20:08:45.542Z,13.63
2023-04-23T20:11:12.171Z,13.66
2023-04-23T20:13:38.717Z,13.35
2023-04-23T20:16:05.332Z,12.95
2023-04-23T20:18:31.973Z,13.11
2023-04-23T20:20:59.936Z,12.97
2023-04-23T20:23:26.528Z,13.13
2023-04-23T20:25:53.186Z,12.87
2023-04-23T20:28:19.769Z,13.12
2023-04-23T20:30:46.412Z,13.13
2023-04-23T20:33:13.006Z,13.33
2023-04-23T20:35:39.956Z,13.24
2023-04-23T20:38:07.932Z,13.49
2023-04-23T20:40:34.917Z,13.44
2023-04-23T20:43:01.720Z,13.71
2023-04-23T20:45:28.317Z,13.78
2023-04-23T20:47:54.931Z,13.90
2023-04-23T20:50:21.580Z,13.75
2023-04-23T20:52:48.304Z,13.80
2023-04-23T20:55:16.293Z,13.65
2023-04-23T20:57:43.043Z,13.55
2023-04-23T21:00:10.167Z,13.46
2023-04-23T21:02:37.531Z,13.63
2023-04-23T21:05:05.894Z,13.67
2023-04-23T21:07:32.509Z,13.46
2023-04-23T21:09:59.144Z,13.78
2023-04-23T21:12:27.729Z,13.77
2023-04-23T21:14:55.089Z,13.80
2023-04-23T21:17:21.780Z,13.82
2023-04-23T21:19:48.352Z,14.04
2023-04-23T21:22:14.799Z,13.62
2023-04-23T21:24:41.417Z,13.71
2023-04-23T21:27:09.209Z,13.36
2023-04-23T21:29:37.414Z,13.08
2023-04-23T21:32:04.082Z,13.50
2023-04-23T21:34:30.660Z,13.34
2023-04-23T21:36:57.384Z,13.74
2023-04-23T21:39:23.936Z,13.68
2023-04-23T21:41:50.551Z,13.31
2023-04-23T21:44:17.144Z,13.26
2023-04-23T21:46:45.279Z,12.91
2023-04-23T21:49:11.928Z,13.09
2023-04-23T21:51:38.740Z,13.14
2023-04-23T21:54:05.581Z,13.06
2023-04-23T21:56:32.433Z,13.11
2023-04-23T21:58:59.061Z,13.32
2023-04-23T22:01:25.738Z,12.98
2023-04-23T22:03:53.848Z,13.08
2023-04-23T22:06:20.529Z,13.16
2023-04-23T22:08:47.242Z,13.50
2023-04-23T22:11:13.979Z,13.59
2023-04-23T22:13:40.546Z,13.42
2023-04-23T22:16:20.370Z,13.26
2023-04-23T22:18:55.402Z,13.25
2023-04-23T22:21:22.183Z,13.35
2023-04-23T22:23:48.784Z,13.51
2023-04-23T22:26:15.367Z,13.34
2023-04-23T22:28:43.131Z,13.30
2023-04-23T22:31:09.756Z,13.62
2023-04-23T22:33:36.619Z,13.28
2023-04-23T22:36:05.007Z,13.12
2023-04-23T22:38:32.536Z,13.27
2023-04-23T22:40:59.324Z,13.23
2023-04-23T22:43:25.893Z,13.30
2023-04-23T22:45:52.823Z,13.36
2023-04-23T22:48:19.630Z,13.33
2023-04-23T22:50:46.214Z,13.13
2023-04-23T22:53:14.194Z,13.17
2023-04-23T22:55:40.784Z,13.21
2023-04-23T22:58:07.308Z,13.47
2023-04-23T23:00:34.024Z,13.43
2023-04-23T23:03:00.690Z,13.54
2023-04-23T23:05:27.388Z,13.43
2023-04-23T23:07:53.938Z,13.62
2023-04-23T23:10:22.985Z,13.47
2023-04-23T23:12:49.867Z,13.64
2023-04-23T23:15:16.648Z,13.62
2023-04-23T23:17:43.278Z,13.71
2023-04-23T23:20:10.816Z,13.48
2023-04-23T23:22:38.566Z,13.39
2023-04-23T23:25:06.034Z,13.52
2023-04-23T23:27:33.987Z,13.46
2023-04-23T23:30:00.581Z,13.29
2023-04-23T23:32:27.415Z,13.13
2023-04-23T23:34:53.976Z,13.12
2023-04-23T23:37:20.798Z,13.04
2023-04-23T23:39:47.593Z,12.88
2023-04-23T23:42:14.584Z,12.82
2023-04-23T23:44:42.563Z,12.66
2023-04-23T23:47:09.290Z,12.81
2023-04-23T23:49:35.881Z,12.67
2023-04-23T23:52:02.748Z,12.44
2023-04-23T23:54:29.373Z,12.51
2023-04-23T23:56:56.005Z,12.40
2023-04-23T23:59:22.790Z,12.21
